sensor_id;sensor_type;location;lat;lon;timestamp;P1;durP1;ratioP1;P2;durP2;ratioP2
55641;SDS011;41509;53.108;6.100;2023-05-14T00:01:51;9.63;;;4.57;;
55641;SDS011;41509;53.108;6.100;2023-05-14T00:04:17;8.63;;;4.37;;
55641;SDS011;41509;53.108;6.100;2023-05-14T00:06:43;10.10;;;4.88;;
55641;SDS011;41509;53.108;6.100;2023-05-14T00:09:10;10.27;;;4.95;;
55641;SDS011;41509;53.108;6.100;2023-05-14T00:11:36;7.72;;;4.50;;
55641;SDS011;41509;53.108;6.100;2023-05-14T00:14:01;7.05;;;4.28;;
55641;SDS011;41509;53.108;6.100;2023-05-14T00:16:27;7.80;;;4.20;;
55641;SDS011;41509;53.108;6.100;2023-05-14T00:18:53;10.70;;;4.67;;
55641;SDS011;41509;53.108;6.100;2023-05-14T00:21:18;7.67;;;4.50;;
55641;SDS011;41509;53.108;6.100;2023-05-14T00:23:44;8.15;;;4.88;;
55641;SDS011;41509;53.108;6.100;2023-05-14T00:26:09;8.97;;;4.33;;
55641;SDS011;41509;53.108;6.100;2023-05-14T00:28:35;8.27;;;4.87;;
55641;SDS011;41509;53.108;6.100;2023-05-14T00:31:01;8.63;;;4.30;;
55641;SDS011;41509;53.108;6.100;2023-05-14T00:36:01;10.75;;;5.25;;
55641;SDS011;41509;53.108;6.100;2023-05-14T00:40:53;10.13;;;4.65;;
55641;SDS011;41509;53.108;6.100;2023-05-14T00:43:19;11.43;;;5.63;;
55641;SDS011;41509;53.108;6.100;2023-05-14T00:45:46;11.02;;;5.00;;
55641;SDS011;41509;53.108;6.100;2023-05-14T00:48:14;8.38;;;4.43;;
55641;SDS011;41509;53.108;6.100;2023-05-14T00:50:40;11.48;;;4.80;;
55641;SDS011;41509;53.108;6.100;2023-05-14T00:53:06;8.07;;;5.25;;
55641;SDS011;41509;53.108;6.100;2023-05-14T00:55:35;7.13;;;5.13;;
55641;SDS011;41509;53.108;6.100;2023-05-14T00:58:02;9.65;;;5.40;;
55641;SDS011;41509;53.108;6.100;2023-05-14T01:00:31;11.18;;;5.45;;
55641;SDS011;41509;53.108;6.100;2023-05-14T01:02:57;8.70;;;5.67;;
55641;SDS011;41509;53.108;6.100;2023-05-14T01:05:25;19.08;;;6.60;;
55641;SDS011;41509;53.108;6.100;2023-05-14T01:11:11;10.38;;;5.97;;
55641;SDS011;41509;53.108;6.100;2023-05-14T01:13:46;10.38;;;5.30;;
55641;SDS011;41509;53.108;6.100;2023-05-14T01:16:34;10.75;;;5.25;;
55641;SDS011;41509;53.108;6.100;2023-05-14T01:19:03;9.45;;;5.63;;
55641;SDS011;41509;53.108;6.100;2023-05-14T01:21:38;9.50;;;5.38;;
55641;SDS011;41509;53.108;6.100;2023-05-14T01:24:06;10.85;;;5.80;;
55641;SDS011;41509;53.108;6.100;2023-05-14T01:26:33;10.05;;;5.70;;
55641;SDS011;41509;53.108;6.100;2023-05-14T01:29:21;8.48;;;5.30;;
55641;SDS011;41509;53.108;6.100;2023-05-14T01:31:46;8.98;;;5.57;;
55641;SDS011;41509;53.108;6.100;2023-05-14T01:34:14;9.95;;;5.07;;
55641;SDS011;41509;53.108;6.100;2023-05-14T01:36:43;12.68;;;5.88;;
55641;SDS011;41509;53.108;6.100;2023-05-14T01:39:11;8.38;;;5.28;;
55641;SDS011;41509;53.108;6.100;2023-05-14T01:41:39;10.43;;;5.47;;
55641;SDS011;41509;53.108;6.100;2023-05-14T01:44:07;8.73;;;5.30;;
55641;SDS011;41509;53.108;6.100;2023-05-14T01:46:33;8.30;;;4.88;;
55641;SDS011;41509;53.108;6.100;2023-05-14T01:48:59;8.50;;;4.73;;
55641;SDS011;41509;53.108;6.100;2023-05-14T01:51:25;7.60;;;5.45;;
55641;SDS011;41509;53.108;6.100;2023-05-14T01:53:50;10.02;;;5.75;;
55641;SDS011;41509;53.108;6.100;2023-05-14T01:56:17;8.15;;;4.68;;
55641;SDS011;41509;53.108;6.100;2023-05-14T01:58:44;9.35;;;5.35;;
55641;SDS011;41509;53.108;6.100;2023-05-14T02:01:09;10.93;;;4.93;;
55641;SDS011;41509;53.108;6.100;2023-05-14T02:03:35;11.27;;;6.03;;
55641;SDS011;41509;53.108;6.100;2023-05-14T02:06:00;8.90;;;5.50;;
55641;SDS011;41509;53.108;6.100;2023-05-14T02:08:26;10.70;;;5.53;;
55641;SDS011;41509;53.108;6.100;2023-05-14T02:10:51;11.63;;;5.13;;
55641;SDS011;41509;53.108;6.100;2023-05-14T02:13:18;14.13;;;5.50;;
55641;SDS011;41509;53.108;6.100;2023-05-14T02:15:44;10.55;;;5.20;;
55641;SDS011;41509;53.108;6.100;2023-05-14T02:18:09;8.77;;;5.47;;
55641;SDS011;41509;53.108;6.100;2023-05-14T02:20:35;14.13;;;6.40;;
55641;SDS011;41509;53.108;6.100;2023-05-14T02:23:00;12.20;;;5.83;;
55641;SDS011;41509;53.108;6.100;2023-05-14T02:25:26;10.17;;;5.53;;
55641;SDS011;41509;53.108;6.100;2023-05-14T02:27:52;11.40;;;6.25;;
55641;SDS011;41509;53.108;6.100;2023-05-14T02:30:17;9.17;;;5.53;;
55641;SDS011;41509;53.108;6.100;2023-05-14T02:32:43;8.97;;;4.97;;
55641;SDS011;41509;53.108;6.100;2023-05-14T02:35:08;11.10;;;5.63;;
55641;SDS011;41509;53.108;6.100;2023-05-14T02:37:34;13.40;;;5.07;;
55641;SDS011;41509;53.108;6.100;2023-05-14T02:40:00;9.67;;;5.20;;
55641;SDS011;41509;53.108;6.100;2023-05-14T02:42:25;16.10;;;5.73;;
55641;SDS011;41509;53.108;6.100;2023-05-14T02:44:51;8.80;;;5.17;;
55641;SDS011;41509;53.108;6.100;2023-05-14T02:47:17;10.70;;;5.47;;
55641;SDS011;41509;53.108;6.100;2023-05-14T02:49:42;12.13;;;5.80;;
55641;SDS011;41509;53.108;6.100;2023-05-14T02:52:08;13.10;;;6.77;;
55641;SDS011;41509;53.108;6.100;2023-05-14T02:54:34;9.73;;;5.23;;
55641;SDS011;41509;53.108;6.100;2023-05-14T02:56:59;14.27;;;5.83;;
55641;SDS011;41509;53.108;6.100;2023-05-14T02:59:25;12.07;;;6.20;;
55641;SDS011;41509;53.108;6.100;2023-05-14T03:01:51;14.00;;;5.57;;
55641;SDS011;41509;53.108;6.100;2023-05-14T03:04:16;13.85;;;6.43;;
55641;SDS011;41509;53.108;6.100;2023-05-14T03:06:42;10.03;;;5.27;;
55641;SDS011;41509;53.108;6.100;2023-05-14T03:09:08;10.57;;;5.40;;
55641;SDS011;41509;53.108;6.100;2023-05-14T03:11:33;16.37;;;5.73;;
55641;SDS011;41509;53.108;6.100;2023-05-14T03:13:59;12.05;;;6.20;;
55641;SDS011;41509;53.108;6.100;2023-05-14T03:16:25;14.82;;;5.45;;
55641;SDS011;41509;53.108;6.100;2023-05-14T03:18:51;10.00;;;5.57;;
55641;SDS011;41509;53.108;6.100;2023-05-14T03:21:16;11.77;;;6.33;;
55641;SDS011;41509;53.108;6.100;2023-05-14T03:23:42;12.53;;;5.63;;
55641;SDS011;41509;53.108;6.100;2023-05-14T03:26:08;12.17;;;5.40;;
55641;SDS011;41509;53.108;6.100;2023-05-14T03:28:33;12.10;;;6.17;;
55641;SDS011;41509;53.108;6.100;2023-05-14T03:30:59;10.23;;;6.07;;
55641;SDS011;41509;53.108;6.100;2023-05-14T03:33:25;10.85;;;5.60;;
55641;SDS011;41509;53.108;6.100;2023-05-14T03:35:50;9.25;;;4.93;;
55641;SDS011;41509;53.108;6.100;2023-05-14T03:38:16;8.80;;;4.33;;
55641;SDS011;41509;53.108;6.100;2023-05-14T03:40:42;14.07;;;4.63;;
55641;SDS011;41509;53.108;6.100;2023-05-14T03:45:34;13.43;;;4.15;;
55641;SDS011;41509;53.108;6.100;2023-05-14T03:47:59;12.75;;;5.90;;
55641;SDS011;41509;53.108;6.100;2023-05-14T03:50:25;14.50;;;5.43;;
55641;SDS011;41509;53.108;6.100;2023-05-14T03:52:51;7.93;;;4.85;;
55641;SDS011;41509;53.108;6.100;2023-05-14T03:55:18;11.27;;;5.15;;
55641;SDS011;41509;53.108;6.100;2023-05-14T03:57:44;12.73;;;5.13;;
55641;SDS011;41509;53.108;6.100;2023-05-14T04:00:10;11.55;;;4.50;;
55641;SDS011;41509;53.108;6.100;2023-05-14T04:02:36;12.48;;;5.55;;
55641;SDS011;41509;53.108;6.100;2023-05-14T04:05:01;9.07;;;5.13;;
55641;SDS011;41509;53.108;6.100;2023-05-14T04:07:28;10.45;;;4.95;;
55641;SDS011;41509;53.108;6.100;2023-05-14T04:09:53;10.83;;;5.13;;
55641;SDS011;41509;53.108;6.100;2023-05-14T04:12:19;13.17;;;4.40;;
55641;SDS011;41509;53.108;6.100;2023-05-14T04:14:45;12.63;;;5.23;;
55641;SDS011;41509;53.108;6.100;2023-05-14T04:17:10;7.00;;;4.67;;
55641;SDS011;41509;53.108;6.100;2023-05-14T04:19:36;10.17;;;4.90;;
55641;SDS011;41509;53.108;6.100;2023-05-14T04:22:02;8.83;;;5.07;;
55641;SDS011;41509;53.108;6.100;2023-05-14T04:24:28;11.65;;;4.78;;
55641;SDS011;41509;53.108;6.100;2023-05-14T04:26:53;10.37;;;4.63;;
55641;SDS011;41509;53.108;6.100;2023-05-14T04:29:19;11.60;;;4.93;;
55641;SDS011;41509;53.108;6.100;2023-05-14T04:31:44;12.47;;;4.70;;
55641;SDS011;41509;53.108;6.100;2023-05-14T04:34:10;12.55;;;4.65;;
55641;SDS011;41509;53.108;6.100;2023-05-14T04:36:36;12.10;;;5.38;;
55641;SDS011;41509;53.108;6.100;2023-05-14T04:39:02;9.75;;;4.80;;
55641;SDS011;41509;53.108;6.100;2023-05-14T04:41:28;10.57;;;4.93;;
55641;SDS011;41509;53.108;6.100;2023-05-14T04:43:57;11.87;;;5.13;;
55641;SDS011;41509;53.108;6.100;2023-05-14T04:46:24;16.92;;;4.95;;
55641;SDS011;41509;53.108;6.100;2023-05-14T04:48:50;13.73;;;5.88;;
55641;SDS011;41509;53.108;6.100;2023-05-14T04:51:16;15.30;;;5.40;;
55641;SDS011;41509;53.108;6.100;2023-05-14T04:53:41;12.93;;;4.80;;
55641;SDS011;41509;53.108;6.100;2023-05-14T04:56:07;15.20;;;4.47;;
55641;SDS011;41509;53.108;6.100;2023-05-14T04:58:32;14.33;;;5.17;;
55641;SDS011;41509;53.108;6.100;2023-05-14T05:00:58;17.83;;;4.93;;
55641;SDS011;41509;53.108;6.100;2023-05-14T05:03:24;13.23;;;4.70;;
55641;SDS011;41509;53.108;6.100;2023-05-14T05:05:49;15.90;;;5.20;;
55641;SDS011;41509;53.108;6.100;2023-05-14T05:08:15;10.07;;;4.93;;
55641;SDS011;41509;53.108;6.100;2023-05-14T05:10:41;9.37;;;4.43;;
55641;SDS011;41509;53.108;6.100;2023-05-14T05:13:07;19.80;;;4.63;;
55641;SDS011;41509;53.108;6.100;2023-05-14T05:15:32;9.97;;;4.77;;
55641;SDS011;41509;53.108;6.100;2023-05-14T05:17:58;10.70;;;5.07;;
55641;SDS011;41509;53.108;6.100;2023-05-14T05:20:24;10.30;;;4.93;;
55641;SDS011;41509;53.108;6.100;2023-05-14T05:22:52;8.77;;;4.53;;
55641;SDS011;41509;53.108;6.100;2023-05-14T05:25:17;14.05;;;5.85;;
55641;SDS011;41509;53.108;6.100;2023-05-14T05:27:43;11.67;;;4.57;;
55641;SDS011;41509;53.108;6.100;2023-05-14T05:30:09;12.80;;;4.78;;
55641;SDS011;41509;53.108;6.100;2023-05-14T05:32:35;11.80;;;4.30;;
55641;SDS011;41509;53.108;6.100;2023-05-14T05:35:01;15.55;;;4.55;;
55641;SDS011;41509;53.108;6.100;2023-05-14T05:37:27;11.80;;;4.85;;
55641;SDS011;41509;53.108;6.100;2023-05-14T05:42:19;16.70;;;4.45;;
55641;SDS011;41509;53.108;6.100;2023-05-14T05:44:45;11.47;;;4.73;;
55641;SDS011;41509;53.108;6.100;2023-05-14T05:47:11;11.03;;;4.50;;
55641;SDS011;41509;53.108;6.100;2023-05-14T05:49:36;11.65;;;4.80;;
55641;SDS011;41509;53.108;6.100;2023-05-14T05:52:02;12.33;;;4.60;;
55641;SDS011;41509;53.108;6.100;2023-05-14T05:54:29;9.50;;;4.13;;
55641;SDS011;41509;53.108;6.100;2023-05-14T05:56:56;13.15;;;4.88;;
55641;SDS011;41509;53.108;6.100;2023-05-14T05:59:22;16.90;;;5.15;;
55641;SDS011;41509;53.108;6.100;2023-05-14T06:01:48;6.65;;;4.05;;
55641;SDS011;41509;53.108;6.100;2023-05-14T06:04:14;15.57;;;4.97;;
55641;SDS011;41509;53.108;6.100;2023-05-14T06:06:40;14.80;;;4.78;;
55641;SDS011;41509;53.108;6.100;2023-05-14T06:09:05;11.15;;;4.07;;
55641;SDS011;41509;53.108;6.100;2023-05-14T06:11:32;8.85;;;4.43;;
55641;SDS011;41509;53.108;6.100;2023-05-14T06:13:58;11.50;;;4.13;;
55641;SDS011;41509;53.108;6.100;2023-05-14T06:16:24;13.37;;;4.20;;
55641;SDS011;41509;53.108;6.100;2023-05-14T06:18:50;11.93;;;4.10;;
55641;SDS011;41509;53.108;6.100;2023-05-14T06:23:42;14.15;;;3.97;;
55641;SDS011;41509;53.108;6.100;2023-05-14T06:26:08;11.02;;;3.83;;
55641;SDS011;41509;53.108;6.100;2023-05-14T06:28:34;10.07;;;4.50;;
55641;SDS011;41509;53.108;6.100;2023-05-14T06:30:59;13.90;;;4.70;;
55641;SDS011;41509;53.108;6.100;2023-05-14T06:33:25;13.37;;;4.53;;
55641;SDS011;41509;53.108;6.100;2023-05-14T06:35:57;8.88;;;4.85;;
55641;SDS011;41509;53.108;6.100;2023-05-14T06:38:23;12.05;;;4.63;;
55641;SDS011;41509;53.108;6.100;2023-05-14T06:40:49;9.27;;;5.32;;
55641;SDS011;41509;53.108;6.100;2023-05-14T06:43:16;11.10;;;4.80;;
55641;SDS011;41509;53.108;6.100;2023-05-14T06:45:42;8.55;;;4.60;;
55641;SDS011;41509;53.108;6.100;2023-05-14T06:48:08;14.97;;;4.80;;
55641;SDS011;41509;53.108;6.100;2023-05-14T06:50:34;10.02;;;4.47;;
55641;SDS011;41509;53.108;6.100;2023-05-14T06:53:00;16.70;;;5.15;;
55641;SDS011;41509;53.108;6.100;2023-05-14T06:55:25;12.33;;;5.50;;
55641;SDS011;41509;53.108;6.100;2023-05-14T06:57:51;12.77;;;5.57;;
55641;SDS011;41509;53.108;6.100;2023-05-14T07:00:16;11.40;;;4.57;;
55641;SDS011;41509;53.108;6.100;2023-05-14T07:02:42;17.00;;;5.57;;
55641;SDS011;41509;53.108;6.100;2023-05-14T07:05:09;13.70;;;5.50;;
55641;SDS011;41509;53.108;6.100;2023-05-14T07:10:01;12.43;;;5.15;;
55641;SDS011;41509;53.108;6.100;2023-05-14T07:12:26;12.45;;;5.18;;
55641;SDS011;41509;53.108;6.100;2023-05-14T07:14:52;13.30;;;4.43;;
55641;SDS011;41509;53.108;6.100;2023-05-14T07:17:18;10.17;;;4.70;;
55641;SDS011;41509;53.108;6.100;2023-05-14T07:19:43;18.87;;;5.40;;
55641;SDS011;41509;53.108;6.100;2023-05-14T07:22:09;11.75;;;5.40;;
55641;SDS011;41509;53.108;6.100;2023-05-14T07:24:35;13.83;;;4.60;;
55641;SDS011;41509;53.108;6.100;2023-05-14T07:27:00;12.50;;;4.27;;
55641;SDS011;41509;53.108;6.100;2023-05-14T07:29:26;12.82;;;5.10;;
55641;SDS011;41509;53.108;6.100;2023-05-14T07:31:54;8.48;;;4.07;;
55641;SDS011;41509;53.108;6.100;2023-05-14T07:34:19;10.35;;;4.90;;
55641;SDS011;41509;53.108;6.100;2023-05-14T07:36:45;12.20;;;4.27;;
55641;SDS011;41509;53.108;6.100;2023-05-14T07:39:11;11.98;;;4.55;;
55641;SDS011;41509;53.108;6.100;2023-05-14T07:41:36;9.75;;;3.95;;
55641;SDS011;41509;53.108;6.100;2023-05-14T07:44:02;10.83;;;4.80;;
55641;SDS011;41509;53.108;6.100;2023-05-14T07:48:54;11.77;;;4.53;;
55641;SDS011;41509;53.108;6.100;2023-05-14T07:51:19;13.07;;;4.28;;
55641;SDS011;41509;53.108;6.100;2023-05-14T07:53:45;10.05;;;4.85;;
55641;SDS011;41509;53.108;6.100;2023-05-14T07:56:11;9.37;;;3.80;;
55641;SDS011;41509;53.108;6.100;2023-05-14T07:58:36;14.57;;;4.87;;
55641;SDS011;41509;53.108;6.100;2023-05-14T08:01:02;12.00;;;5.07;;
55641;SDS011;41509;53.108;6.100;2023-05-14T08:03:31;13.18;;;5.10;;
55641;SDS011;41509;53.108;6.100;2023-05-14T08:05:57;12.30;;;4.03;;
55641;SDS011;41509;53.108;6.100;2023-05-14T08:08:23;10.10;;;4.07;;
55641;SDS011;41509;53.108;6.100;2023-05-14T08:10:49;8.17;;;4.37;;
55641;SDS011;41509;53.108;6.100;2023-05-14T08:13:15;11.40;;;5.10;;
55641;SDS011;41509;53.108;6.100;2023-05-14T08:15:40;7.53;;;3.83;;
55641;SDS011;41509;53.108;6.100;2023-05-14T08:18:06;11.32;;;4.60;;
55641;SDS011;41509;53.108;6.100;2023-05-14T08:20:32;8.87;;;4.33;;
55641;SDS011;41509;53.108;6.100;2023-05-14T08:22:57;10.07;;;3.93;;
55641;SDS011;41509;53.108;6.100;2023-05-14T08:25:25;9.00;;;3.83;;
55641;SDS011;41509;53.108;6.100;2023-05-14T08:27:51;9.55;;;4.22;;
55641;SDS011;41509;53.108;6.100;2023-05-14T08:30:18;12.82;;;4.38;;
55641;SDS011;41509;53.108;6.100;2023-05-14T08:32:44;10.57;;;3.67;;
55641;SDS011;41509;53.108;6.100;2023-05-14T08:35:10;7.68;;;3.78;;
55641;SDS011;41509;53.108;6.100;2023-05-14T08:37:36;8.80;;;4.03;;
55641;SDS011;41509;53.108;6.100;2023-05-14T08:40:01;11.20;;;4.30;;
55641;SDS011;41509;53.108;6.100;2023-05-14T08:42:27;9.32;;;4.03;;
55641;SDS011;41509;53.108;6.100;2023-05-14T08:44:59;8.52;;;4.30;;
55641;SDS011;41509;53.108;6.100;2023-05-14T08:47:28;12.48;;;4.43;;
55641;SDS011;41509;53.108;6.100;2023-05-14T08:50:02;9.15;;;4.07;;
55641;SDS011;41509;53.108;6.100;2023-05-14T08:52:29;9.43;;;3.83;;
55641;SDS011;41509;53.108;6.100;2023-05-14T08:54:55;10.73;;;4.32;;
55641;SDS011;41509;53.108;6.100;2023-05-14T08:57:24;10.40;;;4.00;;
55641;SDS011;41509;53.108;6.100;2023-05-14T08:59:50;7.38;;;3.63;;
55641;SDS011;41509;53.108;6.100;2023-05-14T09:02:21;8.48;;;3.60;;
55641;SDS011;41509;53.108;6.100;2023-05-14T09:04:53;8.95;;;3.42;;
55641;SDS011;41509;53.108;6.100;2023-05-14T09:07:20;6.88;;;3.28;;
55641;SDS011;41509;53.108;6.100;2023-05-14T09:09:46;6.57;;;3.17;;
55641;SDS011;41509;53.108;6.100;2023-05-14T09:12:12;7.28;;;3.47;;
55641;SDS011;41509;53.108;6.100;2023-05-14T09:14:38;10.65;;;3.78;;
55641;SDS011;41509;53.108;6.100;2023-05-14T09:17:03;9.50;;;3.65;;
55641;SDS011;41509;53.108;6.100;2023-05-14T09:19:29;7.70;;;3.38;;
55641;SDS011;41509;53.108;6.100;2023-05-14T09:21:57;10.57;;;3.55;;
55641;SDS011;41509;53.108;6.100;2023-05-14T09:24:24;7.22;;;2.95;;
55641;SDS011;41509;53.108;6.100;2023-05-14T09:26:53;10.73;;;3.90;;
55641;SDS011;41509;53.108;6.100;2023-05-14T09:29:25;10.18;;;4.38;;
55641;SDS011;41509;53.108;6.100;2023-05-14T09:31:55;8.02;;;3.70;;
55641;SDS011;41509;53.108;6.100;2023-05-14T09:34:25;7.65;;;3.50;;
55641;SDS011;41509;53.108;6.100;2023-05-14T09:36:56;8.35;;;3.85;;
55641;SDS011;41509;53.108;6.100;2023-05-14T09:39:23;10.25;;;4.05;;
55641;SDS011;41509;53.108;6.100;2023-05-14T09:41:49;6.28;;;3.67;;
55641;SDS011;41509;53.108;6.100;2023-05-14T09:44:18;9.80;;;3.60;;
55641;SDS011;41509;53.108;6.100;2023-05-14T09:46:47;10.00;;;4.10;;
55641;SDS011;41509;53.108;6.100;2023-05-14T09:49:13;9.15;;;3.40;;
55641;SDS011;41509;53.108;6.100;2023-05-14T09:51:39;6.45;;;3.78;;
55641;SDS011;41509;53.108;6.100;2023-05-14T09:54:06;8.75;;;3.75;;
55641;SDS011;41509;53.108;6.100;2023-05-14T09:56:32;7.55;;;3.72;;
55641;SDS011;41509;53.108;6.100;2023-05-14T09:59:01;7.25;;;3.75;;
55641;SDS011;41509;53.108;6.100;2023-05-14T10:01:30;9.52;;;3.92;;
55641;SDS011;41509;53.108;6.100;2023-05-14T10:03:56;11.63;;;4.05;;
55641;SDS011;41509;53.108;6.100;2023-05-14T10:06:29;7.80;;;3.90;;
55641;SDS011;41509;53.108;6.100;2023-05-14T10:09:04;11.07;;;4.15;;
55641;SDS011;41509;53.108;6.100;2023-05-14T10:11:37;5.88;;;3.75;;
55641;SDS011;41509;53.108;6.100;2023-05-14T10:17:07;11.77;;;3.95;;
55641;SDS011;41509;53.108;6.100;2023-05-14T10:19:42;8.98;;;3.55;;
55641;SDS011;41509;53.108;6.100;2023-05-14T10:22:11;9.00;;;4.20;;
55641;SDS011;41509;53.108;6.100;2023-05-14T10:24:39;10.85;;;3.40;;
55641;SDS011;41509;53.108;6.100;2023-05-14T10:27:05;8.45;;;3.35;;
55641;SDS011;41509;53.108;6.100;2023-05-14T10:29:35;8.10;;;3.80;;
55641;SDS011;41509;53.108;6.100;2023-05-14T10:32:04;10.27;;;3.90;;
55641;SDS011;41509;53.108;6.100;2023-05-14T10:34:41;8.13;;;4.18;;
55641;SDS011;41509;53.108;6.100;2023-05-14T10:37:11;9.90;;;3.88;;
55641;SDS011;41509;53.108;6.100;2023-05-14T10:42:05;11.82;;;4.18;;
55641;SDS011;41509;53.108;6.100;2023-05-14T10:44:32;6.80;;;3.45;;
55641;SDS011;41509;53.108;6.100;2023-05-14T10:47:00;7.45;;;3.80;;
55641;SDS011;41509;53.108;6.100;2023-05-14T10:49:26;9.73;;;4.00;;
55641;SDS011;41509;53.108;6.100;2023-05-14T10:51:52;10.55;;;3.70;;
55641;SDS011;41509;53.108;6.100;2023-05-14T10:54:18;9.48;;;4.20;;
55641;SDS011;41509;53.108;6.100;2023-05-14T10:56:47;9.75;;;4.03;;
55641;SDS011;41509;53.108;6.100;2023-05-14T10:59:16;8.02;;;4.57;;
55641;SDS011;41509;53.108;6.100;2023-05-14T11:01:42;8.95;;;4.00;;
55641;SDS011;41509;53.108;6.100;2023-05-14T11:04:08;10.82;;;3.95;;
55641;SDS011;41509;53.108;6.100;2023-05-14T11:06:43;9.80;;;4.10;;
55641;SDS011;41509;53.108;6.100;2023-05-14T11:09:11;8.18;;;3.58;;
55641;SDS011;41509;53.108;6.100;2023-05-14T11:11:41;5.90;;;3.33;;
55641;SDS011;41509;53.108;6.100;2023-05-14T11:14:08;6.60;;;3.30;;
55641;SDS011;41509;53.108;6.100;2023-05-14T11:16:33;6.50;;;4.07;;
55641;SDS011;41509;53.108;6.100;2023-05-14T11:19:00;12.07;;;4.45;;
55641;SDS011;41509;53.108;6.100;2023-05-14T11:21:30;9.15;;;3.70;;
55641;SDS011;41509;53.108;6.100;2023-05-14T11:23:59;6.85;;;3.58;;
55641;SDS011;41509;53.108;6.100;2023-05-14T11:26:25;9.52;;;3.97;;
55641;SDS011;41509;53.108;6.100;2023-05-14T11:28:53;8.35;;;4.38;;
55641;SDS011;41509;53.108;6.100;2023-05-14T11:31:20;11.32;;;3.72;;
55641;SDS011;41509;53.108;6.100;2023-05-14T11:33:50;13.32;;;4.38;;
55641;SDS011;41509;53.108;6.100;2023-05-14T11:36:16;7.07;;;3.72;;
55641;SDS011;41509;53.108;6.100;2023-05-14T11:38:48;6.95;;;4.22;;
55641;SDS011;41509;53.108;6.100;2023-05-14T11:41:15;8.13;;;3.50;;
55641;SDS011;41509;53.108;6.100;2023-05-14T11:43:41;7.32;;;3.70;;
55641;SDS011;41509;53.108;6.100;2023-05-14T11:46:07;7.97;;;4.20;;
55641;SDS011;41509;53.108;6.100;2023-05-14T11:48:42;6.18;;;3.95;;
55641;SDS011;41509;53.108;6.100;2023-05-14T11:51:07;10.60;;;3.80;;
55641;SDS011;41509;53.108;6.100;2023-05-14T11:53:33;5.47;;;3.78;;
55641;SDS011;41509;53.108;6.100;2023-05-14T11:55:59;6.93;;;3.53;;
55641;SDS011;41509;53.108;6.100;2023-05-14T11:58:24;7.90;;;4.13;;
55641;SDS011;41509;53.108;6.100;2023-05-14T12:03:19;10.32;;;4.10;;
55641;SDS011;41509;53.108;6.100;2023-05-14T12:05:56;7.03;;;3.28;;
55641;SDS011;41509;53.108;6.100;2023-05-14T12:08:26;8.70;;;3.55;;
55641;SDS011;41509;53.108;6.100;2023-05-14T12:10:53;5.28;;;2.85;;
55641;SDS011;41509;53.108;6.100;2023-05-14T12:13:20;8.80;;;3.83;;
55641;SDS011;41509;53.108;6.100;2023-05-14T12:15:47;7.13;;;3.75;;
55641;SDS011;41509;53.108;6.100;2023-05-14T12:18:18;8.48;;;3.95;;
55641;SDS011;41509;53.108;6.100;2023-05-14T12:23:12;9.23;;;4.28;;
55641;SDS011;41509;53.108;6.100;2023-05-14T12:28:13;8.23;;;3.15;;
55641;SDS011;41509;53.108;6.100;2023-05-14T12:30:39;11.07;;;3.37;;
55641;SDS011;41509;53.108;6.100;2023-05-14T12:35:31;10.88;;;4.05;;
55641;SDS011;41509;53.108;6.100;2023-05-14T12:37:57;5.82;;;3.50;;
55641;SDS011;41509;53.108;6.100;2023-05-14T12:40:22;10.77;;;4.80;;
55641;SDS011;41509;53.108;6.100;2023-05-14T12:42:48;7.78;;;3.58;;
55641;SDS011;41509;53.108;6.100;2023-05-14T12:47:39;7.32;;;3.22;;
55641;SDS011;41509;53.108;6.100;2023-05-14T12:52:30;8.27;;;4.20;;
55641;SDS011;41509;53.108;6.100;2023-05-14T12:57:22;6.35;;;3.80;;
55641;SDS011;41509;53.108;6.100;2023-05-14T12:59:51;13.38;;;3.97;;
55641;SDS011;41509;53.108;6.100;2023-05-14T13:04:42;6.03;;;3.17;;
55641;SDS011;41509;53.108;6.100;2023-05-14T13:09:34;5.50;;;2.90;;
55641;SDS011;41509;53.108;6.100;2023-05-14T13:12:00;11.23;;;3.75;;
55641;SDS011;41509;53.108;6.100;2023-05-14T13:14:28;6.50;;;3.08;;
55641;SDS011;41509;53.108;6.100;2023-05-14T13:19:20;5.82;;;2.53;;
55641;SDS011;41509;53.108;6.100;2023-05-14T13:21:47;5.15;;;3.35;;
55641;SDS011;41509;53.108;6.100;2023-05-14T13:26:39;8.00;;;2.85;;
55641;SDS011;41509;53.108;6.100;2023-05-14T13:31:30;4.53;;;2.60;;
55641;SDS011;41509;53.108;6.100;2023-05-14T13:36:23;10.45;;;3.42;;
55641;SDS011;41509;53.108;6.100;2023-05-14T13:38:51;5.82;;;3.00;;
55641;SDS011;41509;53.108;6.100;2023-05-14T13:43:42;7.85;;;4.88;;
55641;SDS011;41509;53.108;6.100;2023-05-14T13:48:33;7.05;;;3.38;;
55641;SDS011;41509;53.108;6.100;2023-05-14T13:51:01;10.70;;;5.68;;
55641;SDS011;41509;53.108;6.100;2023-05-14T13:55:52;7.60;;;3.22;;
55641;SDS011;41509;53.108;6.100;2023-05-14T13:58:22;4.78;;;3.60;;
55641;SDS011;41509;53.108;6.100;2023-05-14T14:00:48;10.35;;;6.20;;
55641;SDS011;41509;53.108;6.100;2023-05-14T14:03:14;8.43;;;4.07;;
55641;SDS011;41509;53.108;6.100;2023-05-14T14:08:05;7.18;;;3.72;;
55641;SDS011;41509;53.108;6.100;2023-05-14T14:13:00;27.70;;;10.80;;
55641;SDS011;41509;53.108;6.100;2023-05-14T14:17:52;7.38;;;4.32;;
55641;SDS011;41509;53.108;6.100;2023-05-14T14:20:18;8.15;;;3.97;;
55641;SDS011;41509;53.108;6.100;2023-05-14T14:25:11;8.40;;;3.58;;
55641;SDS011;41509;53.108;6.100;2023-05-14T14:30:07;8.52;;;4.20;;
55641;SDS011;41509;53.108;6.100;2023-05-14T14:32:39;6.67;;;3.87;;
55641;SDS011;41509;53.108;6.100;2023-05-14T14:35:08;9.48;;;4.72;;
55641;SDS011;41509;53.108;6.100;2023-05-14T14:37:34;10.63;;;5.32;;
55641;SDS011;41509;53.108;6.100;2023-05-14T14:42:25;10.32;;;4.25;;
55641;SDS011;41509;53.108;6.100;2023-05-14T14:47:16;9.57;;;5.43;;
55641;SDS011;41509;53.108;6.100;2023-05-14T14:52:08;7.35;;;5.05;;
55641;SDS011;41509;53.108;6.100;2023-05-14T14:56:59;9.25;;;5.05;;
55641;SDS011;41509;53.108;6.100;2023-05-14T14:59:24;9.50;;;5.28;;
55641;SDS011;41509;53.108;6.100;2023-05-14T15:04:15;10.90;;;5.43;;
55641;SDS011;41509;53.108;6.100;2023-05-14T15:09:06;12.05;;;6.72;;
55641;SDS011;41509;53.108;6.100;2023-05-14T15:11:33;9.20;;;4.90;;
55641;SDS011;41509;53.108;6.100;2023-05-14T15:16:24;14.93;;;7.90;;
55641;SDS011;41509;53.108;6.100;2023-05-14T15:18:49;28.75;;;18.38;;
55641;SDS011;41509;53.108;6.100;2023-05-14T15:23:41;14.68;;;8.25;;
55641;SDS011;41509;53.108;6.100;2023-05-14T15:26:06;10.77;;;6.10;;
55641;SDS011;41509;53.108;6.100;2023-05-14T15:31:00;12.00;;;5.72;;
55641;SDS011;41509;53.108;6.100;2023-05-14T15:35:57;8.35;;;5.10;;
55641;SDS011;41509;53.108;6.100;2023-05-14T15:40:48;11.23;;;6.35;;
55641;SDS011;41509;53.108;6.100;2023-05-14T15:43:14;13.05;;;6.80;;
55641;SDS011;41509;53.108;6.100;2023-05-14T15:48:08;12.77;;;6.80;;
55641;SDS011;41509;53.108;6.100;2023-05-14T15:52:59;12.75;;;6.50;;
55641;SDS011;41509;53.108;6.100;2023-05-14T15:57:50;11.50;;;6.43;;
55641;SDS011;41509;53.108;6.100;2023-05-14T16:02:41;12.38;;;6.63;;
55641;SDS011;41509;53.108;6.100;2023-05-14T16:07:33;13.25;;;7.35;;
55641;SDS011;41509;53.108;6.100;2023-05-14T16:12:24;13.25;;;6.82;;
55641;SDS011;41509;53.108;6.100;2023-05-14T16:14:50;10.90;;;6.97;;
55641;SDS011;41509;53.108;6.100;2023-05-14T16:17:15;12.25;;;7.53;;
55641;SDS011;41509;53.108;6.100;2023-05-14T16:22:06;12.32;;;7.80;;
55641;SDS011;41509;53.108;6.100;2023-05-14T16:24:32;12.57;;;7.38;;
55641;SDS011;41509;53.108;6.100;2023-05-14T16:26:58;13.10;;;7.30;;
55641;SDS011;41509;53.108;6.100;2023-05-14T16:29:24;14.57;;;8.07;;
55641;SDS011;41509;53.108;6.100;2023-05-14T16:34:16;13.05;;;8.90;;
55641;SDS011;41509;53.108;6.100;2023-05-14T16:36:41;15.23;;;9.18;;
55641;SDS011;41509;53.108;6.100;2023-05-14T16:39:07;15.30;;;9.18;;
55641;SDS011;41509;53.108;6.100;2023-05-14T16:41:33;13.15;;;8.48;;